sensor_id;sensor_type;location;lat;lon;timestamp;temperature;humidity
30572;DHT22;17348;50.948;10.696;2023-06-22T00:01:59;19.80;99.90
30572;DHT22;17348;50.948;10.696;2023-06-22T00:05:01;19.70;99.90
30572;DHT22;17348;50.948;10.696;2023-06-22T00:08:04;19.70;99.90
30572;DHT22;17348;50.948;10.696;2023-06-22T00:11:08;19.70;99.90
30572;DHT22;17348;50.948;10.696;2023-06-22T00:14:11;19.70;99.90
30572;DHT22;17348;50.948;10.696;2023-06-22T00:17:13;19.60;99.90
30572;DHT22;17348;50.948;10.696;2023-06-22T00:20:15;19.60;99.90
30572;DHT22;17348;50.948;10.696;2023-06-22T00:23:19;19.50;99.90
30572;DHT22;17348;50.948;10.696;2023-06-22T00:26:23;19.50;99.90
30572;DHT22;17348;50.948;10.696;2023-06-22T00:29:25;19.40;99.90
30572;DHT22;17348;50.948;10.696;2023-06-22T00:32:28;19.40;99.90
30572;DHT22;17348;50.948;10.696;2023-06-22T00:35:30;19.40;99.90
30572;DHT22;17348;50.948;10.696;2023-06-22T00:38:32;19.40;99.90
30572;DHT22;17348;50.948;10.696;2023-06-22T00:41:36;19.40;99.90
30572;DHT22;17348;50.948;10.696;2023-06-22T00:44:38;19.30;99.90
30572;DHT22;17348;50.948;10.696;2023-06-22T00:47:41;19.30;99.90
30572;DHT22;17348;50.948;10.696;2023-06-22T00:50:44;19.30;99.90
30572;DHT22;17348;50.948;10.696;2023-06-22T00:53:51;19.20;99.90
30572;DHT22;17348;50.948;10.696;2023-06-22T00:56:57;19.20;99.90
30572;DHT22;17348;50.948;10.696;2023-06-22T01:00:00;19.20;99.90
30572;DHT22;17348;50.948;10.696;2023-06-22T01:03:02;19.10;99.90
30572;DHT22;17348;50.948;10.696;2023-06-22T01:06:10;19.10;99.90
30572;DHT22;17348;50.948;10.696;2023-06-22T01:09:21;19.10;99.90
30572;DHT22;17348;50.948;10.696;2023-06-22T01:12:30;19.00;99.90
30572;DHT22;17348;50.948;10.696;2023-06-22T01:15:39;19.00;99.90
30572;DHT22;17348;50.948;10.696;2023-06-22T01:18:43;19.00;99.90
30572;DHT22;17348;50.948;10.696;2023-06-22T01:21:45;18.90;99.90
30572;DHT22;17348;50.948;10.696;2023-06-22T01:24:55;18.90;99.90
30572;DHT22;17348;50.948;10.696;2023-06-22T01:28:03;18.90;99.90
30572;DHT22;17348;50.948;10.696;2023-06-22T01:31:09;18.90;99.90
30572;DHT22;17348;50.948;10.696;2023-06-22T01:34:12;18.80;99.90
30572;DHT22;17348;50.948;10.696;2023-06-22T01:37:16;18.80;99.90
30572;DHT22;17348;50.948;10.696;2023-06-22T01:40:18;18.70;99.90
30572;DHT22;17348;50.948;10.696;2023-06-22T01:43:22;18.70;99.90
30572;DHT22;17348;50.948;10.696;2023-06-22T01:46:27;18.70;99.90
30572;DHT22;17348;50.948;10.696;2023-06-22T01:49:30;18.60;99.90
30572;DHT22;17348;50.948;10.696;2023-06-22T01:52:32;18.60;99.90
30572;DHT22;17348;50.948;10.696;2023-06-22T01:55:35;18.70;99.90
30572;DHT22;17348;50.948;10.696;2023-06-22T01:58:45;18.70;99.90
30572;DHT22;17348;50.948;10.696;2023-06-22T02:01:54;18.70;99.90
30572;DHT22;17348;50.948;10.696;2023-06-22T02:05:04;18.70;99.90
30572;DHT22;17348;50.948;10.696;2023-06-22T02:08:11;18.70;99.90
30572;DHT22;17348;50.948;10.696;2023-06-22T02:11:15;18.70;99.90
30572;DHT22;17348;50.948;10.696;2023-06-22T02:14:19;18.70;99.90
30572;DHT22;17348;50.948;10.696;2023-06-22T02:17:24;18.70;99.90
30572;DHT22;17348;50.948;10.696;2023-06-22T02:20:27;18.70;99.90
30572;DHT22;17348;50.948;10.696;2023-06-22T02:23:29;18.70;99.90
30572;DHT22;17348;50.948;10.696;2023-06-22T02:26:34;18.70;99.90
30572;DHT22;17348;50.948;10.696;2023-06-22T02:29:36;18.70;99.90
30572;DHT22;17348;50.948;10.696;2023-06-22T02:32:40;18.70;99.90
30572;DHT22;17348;50.948;10.696;2023-06-22T02:35:43;18.60;99.90
30572;DHT22;17348;50.948;10.696;2023-06-22T02:38:48;18.60;99.90
30572;DHT22;17348;50.948;10.696;2023-06-22T02:41:52;18.60;99.90
30572;DHT22;17348;50.948;10.696;2023-06-22T02:44:55;18.60;99.90
30572;DHT22;17348;50.948;10.696;2023-06-22T02:47:58;18.60;99.90
30572;DHT22;17348;50.948;10.696;2023-06-22T02:51:01;18.60;99.90
30572;DHT22;17348;50.948;10.696;2023-06-22T02:54:03;18.60;99.90
30572;DHT22;17348;50.948;10.696;2023-06-22T02:57:05;18.60;99.90
30572;DHT22;17348;50.948;10.696;2023-06-22T03:00:09;18.60;99.90
30572;DHT22;17348;50.948;10.696;2023-06-22T03:03:19;18.60;99.90
30572;DHT22;17348;50.948;10.696;2023-06-22T03:06:21;18.60;99.90
30572;DHT22;17348;50.948;10.696;2023-06-22T03:09:29;18.60;99.90
30572;DHT22;17348;50.948;10.696;2023-06-22T03:12:31;18.60;99.90
30572;DHT22;17348;50.948;10.696;2023-06-22T03:15:34;18.60;99.90
30572;DHT22;17348;50.948;10.696;2023-06-22T03:18:37;18.70;99.90
30572;DHT22;17348;50.948;10.696;2023-06-22T03:21:40;18.70;99.90
30572;DHT22;17348;50.948;10.696;2023-06-22T03:24:42;18.80;99.90
30572;DHT22;17348;50.948;10.696;2023-06-22T03:27:44;18.80;99.90
30572;DHT22;17348;50.948;10.696;2023-06-22T03:30:47;18.90;99.90
30572;DHT22;17348;50.948;10.696;2023-06-22T03:33:50;18.90;99.90
30572;DHT22;17348;50.948;10.696;2023-06-22T03:36:53;19.00;99.90
30572;DHT22;17348;50.948;10.696;2023-06-22T03:39:55;19.00;99.90
30572;DHT22;17348;50.948;10.696;2023-06-22T03:42:57;19.00;99.90
30572;DHT22;17348;50.948;10.696;2023-06-22T03:46:00;19.10;99.90
30572;DHT22;17348;50.948;10.696;2023-06-22T03:49:03;19.10;99.90
30572;DHT22;17348;50.948;10.696;2023-06-22T03:52:06;19.10;99.90
30572;DHT22;17348;50.948;10.696;2023-06-22T03:55:09;19.20;99.90
30572;DHT22;17348;50.948;10.696;2023-06-22T03:58:11;19.20;99.90
30572;DHT22;17348;50.948;10.696;2023-06-22T04:01:14;19.20;99.90
30572;DHT22;17348;50.948;10.696;2023-06-22T04:04:19;19.20;99.90
30572;DHT22;17348;50.948;10.696;2023-06-22T04:07:21;19.30;99.90
30572;DHT22;17348;50.948;10.696;2023-06-22T04:10:24;19.30;99.90
30572;DHT22;17348;50.948;10.696;2023-06-22T04:13:26;19.30;99.90
30572;DHT22;17348;50.948;10.696;2023-06-22T04:16:28;19.20;99.90
30572;DHT22;17348;50.948;10.696;2023-06-22T04:19:32;19.30;99.90
30572;DHT22;17348;50.948;10.696;2023-06-22T04:22:34;19.30;99.90
30572;DHT22;17348;50.948;10.696;2023-06-22T04:25:37;19.30;99.90
30572;DHT22;17348;50.948;10.696;2023-06-22T04:28:39;19.30;99.90
30572;DHT22;17348;50.948;10.696;2023-06-22T04:31:41;19.40;99.90
30572;DHT22;17348;50.948;10.696;2023-06-22T04:34:45;19.40;99.90
30572;DHT22;17348;50.948;10.696;2023-06-22T04:37:48;19.40;99.90
30572;DHT22;17348;50.948;10.696;2023-06-22T04:40:50;19.40;99.90
30572;DHT22;17348;50.948;10.696;2023-06-22T04:43:54;19.40;99.90
30572;DHT22;17348;50.948;10.696;2023-06-22T04:47:02;19.40;99.90
30572;DHT22;17348;50.948;10.696;2023-06-22T04:50:09;19.40;99.90
30572;DHT22;17348;50.948;10.696;2023-06-22T04:53:11;19.40;99.90
30572;DHT22;17348;50.948;10.696;2023-06-22T04:56:13;19.50;99.90
30572;DHT22;17348;50.948;10.696;2023-06-22T04:59:18;19.40;99.90
30572;DHT22;17348;50.948;10.696;2023-06-22T05:02:20;19.50;99.90
30572;DHT22;17348;50.948;10.696;2023-06-22T05:05:25;19.60;99.90
30572;DHT22;17348;50.948;10.696;2023-06-22T05:08:28;19.80;99.90
30572;DHT22;17348;50.948;10.696;2023-06-22T05:11:30;19.80;99.90
30572;DHT22;17348;50.948;10.696;2023-06-22T05:14:32;20.00;99.90
30572;DHT22;17348;50.948;10.696;2023-06-22T05:17:35;20.10;99.90
30572;DHT22;17348;50.948;10.696;2023-06-22T05:20:43;20.30;99.90
30572;DHT22;17348;50.948;10.696;2023-06-22T05:23:45;20.40;99.90
30572;DHT22;17348;50.948;10.696;2023-06-22T05:26:48;20.60;99.90
30572;DHT22;17348;50.948;10.696;2023-06-22T05:29:50;20.70;99.90
30572;DHT22;17348;50.948;10.696;2023-06-22T05:32:52;20.80;99.90
30572;DHT22;17348;50.948;10.696;2023-06-22T05:35:56;20.90;99.90
30572;DHT22;17348;50.948;10.696;2023-06-22T05:38:58;21.00;99.90
30572;DHT22;17348;50.948;10.696;2023-06-22T05:42:01;21.10;99.90
30572;DHT22;17348;50.948;10.696;2023-06-22T05:45:04;21.10;99.90
30572;DHT22;17348;50.948;10.696;2023-06-22T05:48:06;21.20;99.90
30572;DHT22;17348;50.948;10.696;2023-06-22T05:51:10;21.20;99.90
30572;DHT22;17348;50.948;10.696;2023-06-22T05:54:12;21.30;99.90
30572;DHT22;17348;50.948;10.696;2023-06-22T05:57:16;21.40;99.90
30572;DHT22;17348;50.948;10.696;2023-06-22T06:00:20;21.50;99.90
30572;DHT22;17348;50.948;10.696;2023-06-22T06:03:23;21.60;99.90
30572;DHT22;17348;50.948;10.696;2023-06-22T06:06:26;21.70;99.90
30572;DHT22;17348;50.948;10.696;2023-06-22T06:09:29;21.80;99.90
30572;DHT22;17348;50.948;10.696;2023-06-22T06:12:32;21.90;99.90
30572;DHT22;17348;50.948;10.696;2023-06-22T06:15:34;22.00;99.90
30572;DHT22;17348;50.948;10.696;2023-06-22T06:18:36;22.10;99.90
30572;DHT22;17348;50.948;10.696;2023-06-22T06:21:40;22.20;99.90
30572;DHT22;17348;50.948;10.696;2023-06-22T06:24:43;22.30;99.90
30572;DHT22;17348;50.948;10.696;2023-06-22T06:27:46;22.40;99.90
30572;DHT22;17348;50.948;10.696;2023-06-22T06:30:48;22.40;99.90
30572;DHT22;17348;50.948;10.696;2023-06-22T06:33:52;22.40;99.90
30572;DHT22;17348;50.948;10.696;2023-06-22T06:36:56;22.50;99.90
30572;DHT22;17348;50.948;10.696;2023-06-22T06:39:59;22.50;99.90
30572;DHT22;17348;50.948;10.696;2023-06-22T06:43:01;22.60;99.90
30572;DHT22;17348;50.948;10.696;2023-06-22T06:46:03;22.70;99.90
30572;DHT22;17348;50.948;10.696;2023-06-22T06:49:06;22.70;99.90
30572;DHT22;17348;50.948;10.696;2023-06-22T06:52:09;22.90;99.90
30572;DHT22;17348;50.948;10.696;2023-06-22T06:55:12;22.90;99.90
30572;DHT22;17348;50.948;10.696;2023-06-22T06:58:15;23.00;99.90
30572;DHT22;17348;50.948;10.696;2023-06-22T07:01:17;23.00;99.90
30572;DHT22;17348;50.948;10.696;2023-06-22T07:04:20;23.10;99.90
30572;DHT22;17348;50.948;10.696;2023-06-22T07:07:24;23.10;99.90
30572;DHT22;17348;50.948;10.696;2023-06-22T07:10:27;23.20;99.90
30572;DHT22;17348;50.948;10.696;2023-06-22T07:13:29;23.40;99.90
30572;DHT22;17348;50.948;10.696;2023-06-22T07:16:31;23.40;99.90
30572;DHT22;17348;50.948;10.696;2023-06-22T07:19:34;23.30;99.90
30572;DHT22;17348;50.948;10.696;2023-06-22T07:22:38;23.50;99.90
30572;DHT22;17348;50.948;10.696;2023-06-22T07:25:42;23.50;99.90
30572;DHT22;17348;50.948;10.696;2023-06-22T07:28:45;23.50;99.90
30572;DHT22;17348;50.948;10.696;2023-06-22T07:31:48;23.60;99.90
30572;DHT22;17348;50.948;10.696;2023-06-22T07:34:51;23.80;99.90
30572;DHT22;17348;50.948;10.696;2023-06-22T07:37:54;24.00;99.90
30572;DHT22;17348;50.948;10.696;2023-06-22T07:40:57;24.40;99.90
30572;DHT22;17348;50.948;10.696;2023-06-22T07:43:59;24.50;99.90
30572;DHT22;17348;50.948;10.696;2023-06-22T07:47:01;25.00;99.90
30572;DHT22;17348;50.948;10.696;2023-06-22T07:50:05;24.80;99.90
30572;DHT22;17348;50.948;10.696;2023-06-22T07:53:08;24.80;99.90
30572;DHT22;17348;50.948;10.696;2023-06-22T07:56:11;24.70;99.90
30572;DHT22;17348;50.948;10.696;2023-06-22T07:59:13;24.70;99.90
30572;DHT22;17348;50.948;10.696;2023-06-22T08:02:15;24.70;99.90
30572;DHT22;17348;50.948;10.696;2023-06-22T08:05:18;24.80;99.90
30572;DHT22;17348;50.948;10.696;2023-06-22T08:08:22;24.70;99.90
30572;DHT22;17348;50.948;10.696;2023-06-22T08:11:24;24.70;99.90
30572;DHT22;17348;50.948;10.696;2023-06-22T08:14:27;24.70;99.90
30572;DHT22;17348;50.948;10.696;2023-06-22T08:17:29;24.80;99.90
30572;DHT22;17348;50.948;10.696;2023-06-22T08:20:32;24.80;99.90
30572;DHT22;17348;50.948;10.696;2023-06-22T08:23:36;24.80;99.90
30572;DHT22;17348;50.948;10.696;2023-06-22T08:26:38;24.80;99.90
30572;DHT22;17348;50.948;10.696;2023-06-22T08:29:41;24.90;99.90
30572;DHT22;17348;50.948;10.696;2023-06-22T08:32:43;25.00;99.90
30572;DHT22;17348;50.948;10.696;2023-06-22T08:35:46;25.00;99.90
30572;DHT22;17348;50.948;10.696;2023-06-22T08:38:50;25.10;99.90
30572;DHT22;17348;50.948;10.696;2023-06-22T08:41:54;25.20;99.90
30572;DHT22;17348;50.948;10.696;2023-06-22T08:44:57;25.30;99.90
30572;DHT22;17348;50.948;10.696;2023-06-22T08:47:59;25.30;99.90
30572;DHT22;17348;50.948;10.696;2023-06-22T08:51:02;25.40;99.90
30572;DHT22;17348;50.948;10.696;2023-06-22T08:54:06;25.60;99.90
30572;DHT22;17348;50.948;10.696;2023-06-22T08:57:08;25.70;99.90
30572;DHT22;17348;50.948;10.696;2023-06-22T09:00:11;25.80;99.90
30572;DHT22;17348;50.948;10.696;2023-06-22T09:03:18;25.80;99.90
30572;DHT22;17348;50.948;10.696;2023-06-22T09:06:21;25.80;99.90
30572;DHT22;17348;50.948;10.696;2023-06-22T09:09:25;25.90;99.90
30572;DHT22;17348;50.948;10.696;2023-06-22T09:12:27;25.90;99.90
30572;DHT22;17348;50.948;10.696;2023-06-22T09:15:31;26.10;99.90
30572;DHT22;17348;50.948;10.696;2023-06-22T09:18:35;26.00;99.90
30572;DHT22;17348;50.948;10.696;2023-06-22T09:21:37;26.10;99.90
30572;DHT22;17348;50.948;10.696;2023-06-22T09:24:41;26.20;99.90
30572;DHT22;17348;50.948;10.696;2023-06-22T09:27:44;26.30;99.90
30572;DHT22;17348;50.948;10.696;2023-06-22T09:30:46;26.50;99.90
30572;DHT22;17348;50.948;10.696;2023-06-22T09:33:48;26.60;99.90
30572;DHT22;17348;50.948;10.696;2023-06-22T09:36:51;26.80;99.90
30572;DHT22;17348;50.948;10.696;2023-06-22T09:39:54;27.00;99.90
30572;DHT22;17348;50.948;10.696;2023-06-22T09:42:57;27.10;99.90
30572;DHT22;17348;50.948;10.696;2023-06-22T09:45:59;27.10;99.90
30572;DHT22;17348;50.948;10.696;2023-06-22T09:49:03;27.30;99.90
30572;DHT22;17348;50.948;10.696;2023-06-22T09:52:06;27.40;99.90
30572;DHT22;17348;50.948;10.696;2023-06-22T09:55:10;27.60;99.90
30572;DHT22;17348;50.948;10.696;2023-06-22T09:58:12;27.80;99.90
30572;DHT22;17348;50.948;10.696;2023-06-22T10:01:14;27.90;99.90
30572;DHT22;17348;50.948;10.696;2023-06-22T10:04:17;28.00;99.90
30572;DHT22;17348;50.948;10.696;2023-06-22T10:07:19;28.10;99.90
30572;DHT22;17348;50.948;10.696;2023-06-22T10:10:23;28.30;99.90
30572;DHT22;17348;50.948;10.696;2023-06-22T10:13:25;28.40;99.90
30572;DHT22;17348;50.948;10.696;2023-06-22T10:16:30;28.60;99.90
30572;DHT22;17348;50.948;10.696;2023-06-22T10:19:33;28.60;99.90
30572;DHT22;17348;50.948;10.696;2023-06-22T10:22:38;28.70;99.90
30572;DHT22;17348;50.948;10.696;2023-06-22T10:25:43;28.90;99.90
30572;DHT22;17348;50.948;10.696;2023-06-22T10:28:45;28.90;99.90
30572;DHT22;17348;50.948;10.696;2023-06-22T10:31:47;29.10;99.90
30572;DHT22;17348;50.948;10.696;2023-06-22T10:34:50;29.20;99.90
30572;DHT22;17348;50.948;10.696;2023-06-22T10:37:52;29.30;99.90
30572;DHT22;17348;50.948;10.696;2023-06-22T10:40:57;29.40;99.90
30572;DHT22;17348;50.948;10.696;2023-06-22T10:43:59;29.50;99.90
30572;DHT22;17348;50.948;10.696;2023-06-22T10:47:01;29.50;99.90
30572;DHT22;17348;50.948;10.696;2023-06-22T10:50:05;29.60;99.90
30572;DHT22;17348;50.948;10.696;2023-06-22T10:53:07;29.60;99.90
30572;DHT22;17348;50.948;10.696;2023-06-22T10:56:11;29.60;99.90
30572;DHT22;17348;50.948;10.696;2023-06-22T10:59:13;29.50;99.90
30572;DHT22;17348;50.948;10.696;2023-06-22T11:02:16;29.50;99.90
30572;DHT22;17348;50.948;10.696;2023-06-22T11:05:18;29.60;99.90
30572;DHT22;17348;50.948;10.696;2023-06-22T11:08:20;29.60;99.90
30572;DHT22;17348;50.948;10.696;2023-06-22T11:11:25;29.70;99.90
30572;DHT22;17348;50.948;10.696;2023-06-22T11:14:27;29.80;99.90
30572;DHT22;17348;50.948;10.696;2023-06-22T11:17:30;29.90;99.90
30572;DHT22;17348;50.948;10.696;2023-06-22T11:20:33;30.00;99.90
30572;DHT22;17348;50.948;10.696;2023-06-22T11:23:39;30.10;99.90
30572;DHT22;17348;50.948;10.696;2023-06-22T11:26:43;30.20;99.90
30572;DHT22;17348;50.948;10.696;2023-06-22T11:29:45;30.20;99.90
30572;DHT22;17348;50.948;10.696;2023-06-22T11:32:47;30.10;99.90
30572;DHT22;17348;50.948;10.696;2023-06-22T11:35:50;30.20;99.90
30572;DHT22;17348;50.948;10.696;2023-06-22T11:38:52;30.40;99.90
30572;DHT22;17348;50.948;10.696;2023-06-22T11:41:56;30.30;99.90
30572;DHT22;17348;50.948;10.696;2023-06-22T11:44:58;30.10;99.90
30572;DHT22;17348;50.948;10.696;2023-06-22T11:48:01;30.10;99.90
30572;DHT22;17348;50.948;10.696;2023-06-22T11:51:03;30.10;99.90
30572;DHT22;17348;50.948;10.696;2023-06-22T11:54:07;30.20;99.90
30572;DHT22;17348;50.948;10.696;2023-06-22T11:57:14;30.30;99.90
30572;DHT22;17348;50.948;10.696;2023-06-22T12:00:17;30.30;99.90
30572;DHT22;17348;50.948;10.696;2023-06-22T12:03:20;30.30;99.90
30572;DHT22;17348;50.948;10.696;2023-06-22T12:06:23;30.30;99.90
30572;DHT22;17348;50.948;10.696;2023-06-22T12:09:25;30.30;99.90
30572;DHT22;17348;50.948;10.696;2023-06-22T12:12:29;30.40;99.90
30572;DHT22;17348;50.948;10.696;2023-06-22T12:15:31;30.50;99.90
30572;DHT22;17348;50.948;10.696;2023-06-22T12:18:34;30.60;99.90
30572;DHT22;17348;50.948;10.696;2023-06-22T12:21:37;30.60;99.90
30572;DHT22;17348;50.948;10.696;2023-06-22T12:24:40;30.50;99.90
30572;DHT22;17348;50.948;10.696;2023-06-22T12:27:44;30.50;99.90
30572;DHT22;17348;50.948;10.696;2023-06-22T12:30:46;30.40;99.90
30572;DHT22;17348;50.948;10.696;2023-06-22T12:33:48;30.40;99.90
30572;DHT22;17348;50.948;10.696;2023-06-22T12:36:50;30.40;99.90
30572;DHT22;17348;50.948;10.696;2023-06-22T12:39:55;30.50;99.90
30572;DHT22;17348;50.948;10.696;2023-06-22T12:42:59;30.50;99.90
30572;DHT22;17348;50.948;10.696;2023-06-22T12:46:03;30.40;99.90
30572;DHT22;17348;50.948;10.696;2023-06-22T12:49:05;30.30;99.90
30572;DHT22;17348;50.948;10.696;2023-06-22T12:52:10;30.30;99.90
30572;DHT22;17348;50.948;10.696;2023-06-22T12:55:13;30.40;99.90
30572;DHT22;17348;50.948;10.696;2023-06-22T12:58:19;30.40;99.90
30572;DHT22;17348;50.948;10.696;2023-06-22T13:01:21;30.40;99.90
30572;DHT22;17348;50.948;10.696;2023-06-22T13:04:24;30.40;99.90
30572;DHT22;17348;50.948;10.696;2023-06-22T13:07:26;30.40;99.90
30572;DHT22;17348;50.948;10.696;2023-06-22T13:10:28;30.40;99.90
30572;DHT22;17348;50.948;10.696;2023-06-22T13:13:32;30.40;99.90
30572;DHT22;17348;50.948;10.696;2023-06-22T13:16:35;30.40;99.90
30572;DHT22;17348;50.948;10.696;2023-06-22T13:19:40;30.40;99.90
30572;DHT22;17348;50.948;10.696;2023-06-22T13:22:42;30.40;99.90
30572;DHT22;17348;50.948;10.696;2023-06-22T13:25:45;30.40;99.90
30572;DHT22;17348;50.948;10.696;2023-06-22T13:28:48;30.40;99.90
30572;DHT22;17348;50.948;10.696;2023-06-22T13:31:51;30.30;99.90
30572;DHT22;17348;50.948;10.696;2023-06-22T13:34:54;30.20;99.90
30572;DHT22;17348;50.948;10.696;2023-06-22T13:37:56;30.20;99.90
30572;DHT22;17348;50.948;10.696;2023-06-22T13:40:59;30.30;99.90
30572;DHT22;17348;50.948;10.696;2023-06-22T13:44:03;30.30;99.90
30572;DHT22;17348;50.948;10.696;2023-06-22T13:47:06;30.40;99.90
30572;DHT22;17348;50.948;10.696;2023-06-22T13:50:09;30.60;99.90
30572;DHT22;17348;50.948;10.696;2023-06-22T13:53:15;30.70;99.90
30572;DHT22;17348;50.948;10.696;2023-06-22T13:56:18;30.80;99.90
30572;DHT22;17348;50.948;10.696;2023-06-22T13:59:22;30.90;99.90
30572;DHT22;17348;50.948;10.696;2023-06-22T14:02:25;31.00;99.90
30572;DHT22;17348;50.948;10.696;2023-06-22T14:05:28;31.00;99.90
30572;DHT22;17348;50.948;10.696;2023-06-22T14:08:31;31.00;99.90
30572;DHT22;17348;50.948;10.696;2023-06-22T14:11:33;31.10;99.90
30572;DHT22;17348;50.948;10.696;2023-06-22T14:14:37;31.00;99.90
30572;DHT22;17348;50.948;10.696;2023-06-22T14:17:39;31.00;99.90
30572;DHT22;17348;50.948;10.696;2023-06-22T14:20:42;31.00;99.90
30572;DHT22;17348;50.948;10.696;2023-06-22T14:23:44;31.00;99.90
30572;DHT22;17348;50.948;10.696;2023-06-22T14:26:50;31.10;99.90
30572;DHT22;17348;50.948;10.696;2023-06-22T14:29:53;31.20;99.90
30572;DHT22;17348;50.948;10.696;2023-06-22T14:32:56;31.30;99.90
30572;DHT22;17348;50.948;10.696;2023-06-22T14:35:58;31.30;99.90
30572;DHT22;17348;50.948;10.696;2023-06-22T14:39:00;31.40;99.90
30572;DHT22;17348;50.948;10.696;2023-06-22T14:42:03;31.50;99.90
30572;DHT22;17348;50.948;10.696;2023-06-22T14:45:08;31.50;99.90
30572;DHT22;17348;50.948;10.696;2023-06-22T14:48:10;31.30;99.90
30572;DHT22;17348;50.948;10.696;2023-06-22T14:51:12;31.20;99.90
30572;DHT22;17348;50.948;10.696;2023-06-22T14:54:15;31.20;99.90
30572;DHT22;17348;50.948;10.696;2023-06-22T14:57:17;31.20;99.90
30572;DHT22;17348;50.948;10.696;2023-06-22T15:00:22;31.20;99.90
30572;DHT22;17348;50.948;10.696;2023-06-22T15:03:24;31.30;99.90
30572;DHT22;17348;50.948;10.696;2023-06-22T15:06:31;31.30;99.90
30572;DHT22;17348;50.948;10.696;2023-06-22T15:09:34;31.50;99.90
30572;DHT22;17348;50.948;10.696;2023-06-22T15:12:36;31.50;99.90
30572;DHT22;17348;50.948;10.696;2023-06-22T15:15:40;31.50;99.90
30572;DHT22;17348;50.948;10.696;2023-06-22T15:18:42;31.40;99.90
30572;DHT22;17348;50.948;10.696;2023-06-22T15:21:46;31.20;99.90
30572;DHT22;17348;50.948;10.696;2023-06-22T15:24:48;31.20;99.90
30572;DHT22;17348;50.948;10.696;2023-06-22T15:27:53;31.00;99.90
30572;DHT22;17348;50.948;10.696;2023-06-22T15:30:57;31.00;99.90
30572;DHT22;17348;50.948;10.696;2023-06-22T15:34:02;30.90;99.90
30572;DHT22;17348;50.948;10.696;2023-06-22T15:37:05;30.80;99.90
30572;DHT22;17348;50.948;10.696;2023-06-22T15:40:08;30.80;99.90
30572;DHT22;17348;50.948;10.696;2023-06-22T15:43:10;30.70;99.90
30572;DHT22;17348;50.948;10.696;2023-06-22T15:46:15;30.70;99.90
30572;DHT22;17348;50.948;10.696;2023-06-22T15:49:18;30.60;99.90
30572;DHT22;17348;50.948;10.696;2023-06-22T15:52:21;30.40;99.90
30572;DHT22;17348;50.948;10.696;2023-06-22T15:55:24;30.40;99.90
30572;DHT22;17348;50.948;10.696;2023-06-22T15:58:27;30.30;99.90
30572;DHT22;17348;50.948;10.696;2023-06-22T16:01:31;30.30;99.90
30572;DHT22;17348;50.948;10.696;2023-06-22T16:04:33;30.30;99.90
30572;DHT22;17348;50.948;10.696;2023-06-22T16:07:36;30.30;99.90
30572;DHT22;17348;50.948;10.696;2023-06-22T16:10:39;30.30;99.90
30572;DHT22;17348;50.948;10.696;2023-06-22T16:13:41;30.30;99.90
30572;DHT22;17348;50.948;10.696;2023-06-22T16:16:45;30.30;99.90
30572;DHT22;17348;50.948;10.696;2023-06-22T16:19:47;30.20;99.90
30572;DHT22;17348;50.948;10.696;2023-06-22T16:22:49;30.20;99.90
30572;DHT22;17348;50.948;10.696;2023-06-22T16:25:52;30.20;99.90
30572;DHT22;17348;50.948;10.696;2023-06-22T16:28:54;30.10;99.90
30572;DHT22;17348;50.948;10.696;2023-06-22T16:31:58;30.10;99.90
30572;DHT22;17348;50.948;10.696;2023-06-22T16:35:00;30.00;99.90
30572;DHT22;17348;50.948;10.696;2023-06-22T16:38:03;30.00;99.90
30572;DHT22;17348;50.948;10.696;2023-06-22T16:41:05;29.90;99.90
30572;DHT22;17348;50.948;10.696;2023-06-22T16:44:08;29.90;99.90
30572;DHT22;17348;50.948;10.696;2023-06-22T16:47:12;29.80;99.90
30572;DHT22;17348;50.948;10.696;2023-06-22T16:50:15;29.70;99.90
30572;DHT22;17348;50.948;10.696;2023-06-22T16:53:17;29.80;99.90
30572;DHT22;17348;50.948;10.696;2023-06-22T16:56:24;29.70;99.90
30572;DHT22;17348;50.948;10.696;2023-06-22T16:59:27;29.60;99.90
30572;DHT22;17348;50.948;10.696;2023-06-22T17:02:32;29.50;99.90
30572;DHT22;17348;50.948;10.696;2023-06-22T17:05:36;29.50;99.90
30572;DHT22;17348;50.948;10.696;2023-06-22T17:08:39;29.40;99.90
30572;DHT22;17348;50.948;10.696;2023-06-22T17:11:42;29.30;99.90
30572;DHT22;17348;50.948;10.696;2023-06-22T17:14:45;29.30;99.90
30572;DHT22;17348;50.948;10.696;2023-06-22T17:17:49;29.20;99.90
30572;DHT22;17348;50.948;10.696;2023-06-22T17:20:52;29.20;99.90
30572;DHT22;17348;50.948;10.696;2023-06-22T17:23:54;29.10;99.90
30572;DHT22;17348;50.948;10.696;2023-06-22T17:26:57;29.10;99.90
30572;DHT22;17348;50.948;10.696;2023-06-22T17:30:09;29.00;99.90
30572;DHT22;17348;50.948;10.696;2023-06-22T17:33:15;29.00;99.90
30572;DHT22;17348;50.948;10.696;2023-06-22T17:36:20;29.00;99.90
30572;DHT22;17348;50.948;10.696;2023-06-22T17:39:24;29.00;99.90
30572;DHT22;17348;50.948;10.696;2023-06-22T17:42:28;28.90;99.90
30572;DHT22;17348;50.948;10.696;2023-06-22T17:45:30;28.90;99.90
30572;DHT22;17348;50.948;10.696;2023-06-22T17:48:34;28.80;99.90
30572;DHT22;17348;50.948;10.696;2023-06-22T17:51:38;28.80;99.90
30572;DHT22;17348;50.948;10.696;2023-06-22T17:54:41;28.70;99.90
30572;DHT22;17348;50.948;10.696;2023-06-22T17:57:43;28.70;99.90
30572;DHT22;17348;50.948;10.696;2023-06-22T18:00:50;28.60;99.90
30572;DHT22;17348;50.948;10.696;2023-06-22T18:03:53;28.50;99.90
30572;DHT22;17348;50.948;10.696;2023-06-22T18:06:56;28.50;99.90
30572;DHT22;17348;50.948;10.696;2023-06-22T18:09:58;28.40;99.90
30572;DHT22;17348;50.948;10.696;2023-06-22T18:13:02;28.40;99.90
30572;DHT22;17348;50.948;10.696;2023-06-22T18:16:05;28.30;99.90
30572;DHT22;17348;50.948;10.696;2023-06-22T18:19:10;28.30;99.90
30572;DHT22;17348;50.948;10.696;2023-06-22T18:22:12;28.30;99.90
30572;DHT22;17348;50.948;10.696;2023-06-22T18:25:15;28.20;99.90
30572;DHT22;17348;50.948;10.696;2023-06-22T18:28:18;28.20;99.90
30572;DHT22;17348;50.948;10.696;2023-06-22T18:31:21;28.20;99.90
30572;DHT22;17348;50.948;10.696;2023-06-22T18:34:25;28.10;99.90
30572;DHT22;17348;50.948;10.696;2023-06-22T18:37:31;28.10;99.90
30572;DHT22;17348;50.948;10.696;2023-06-22T18:40:34;28.10;99.90
30572;DHT22;17348;50.948;10.696;2023-06-22T18:43:38;28.00;99.90
30572;DHT22;17348;50.948;10.696;2023-06-22T18:46:41;28.00;99.90
30572;DHT22;17348;50.948;10.696;2023-06-22T18:49:48;27.90;99.90
30572;DHT22;17348;50.948;10.696;2023-06-22T18:53:02;27.50;99.90
30572;DHT22;17348;50.948;10.696;2023-06-22T18:56:12;27.00;99.90
30572;DHT22;17348;50.948;10.696;2023-06-22T18:59:15;26.40;99.90